createdAt,value
2019-01-28T00:01:27.716Z,3.90
2019-01-28T00:03:58.138Z,4.20
2019-01-28T00:06:28.668Z,4.07
2019-01-28T00:08:59.098Z,4.73
2019-01-28T00:11:29.726Z,4.67
2019-01-28T00:14:00.226Z,4.63
2019-01-28T00:16:30.769Z,4.83
2019-01-28T00:19:01.436Z,4.80
2019-01-28T00:21:32.161Z,4.43
2019-01-28T00:24:02.890Z,4.93
2019-01-28T00:26:33.503Z,5.10
2019-01-28T00:29:05.714Z,5.17
2019-01-28T00:31:36.424Z,5.20
2019-01-28T00:34:06.946Z,6.57
2019-01-28T00:36:37.490Z,5.27
2019-01-28T00:39:08.607Z,5.70
2019-01-28T00:41:39.241Z,5.07
2019-01-28T00:44:09.829Z,6.33
2019-01-28T00:46:40.135Z,5.37
2019-01-28T00:49:13.651Z,5.23
2019-01-28T00:51:44.226Z,6.47
2019-01-28T00:54:14.853Z,5.33
2019-01-28T00:56:46.313Z,6.13
2019-01-28T00:59:16.932Z,5.13
2019-01-28T01:01:47.486Z,5.70
2019-01-28T01:04:18.199Z,5.23
2019-01-28T01:06:48.767Z,5.20
2019-01-28T01:09:19.396Z,5.17
2019-01-28T01:11:50.023Z,5.60
2019-01-28T01:14:20.676Z,5.63
2019-01-28T01:16:51.281Z,5.50
2019-01-28T01:19:21.911Z,6.60
2019-01-28T01:21:52.540Z,5.73
2019-01-28T01:24:23.148Z,6.43
2019-01-28T01:26:53.808Z,6.63
2019-01-28T01:29:27.193Z,6.53
2019-01-28T01:31:57.856Z,7.87
2019-01-28T01:34:28.560Z,6.63
2019-01-28T01:36:59.110Z,9.17
2019-01-28T01:39:29.732Z,7.00
2019-01-28T01:42:00.234Z,6.90
2019-01-28T01:44:30.883Z,6.97
2019-01-28T01:47:01.152Z,6.97
2019-01-28T01:49:31.818Z,8.33
2019-01-28T01:52:02.513Z,7.60
2019-01-28T01:54:33.131Z,7.50
2019-01-28T01:57:03.723Z,8.57
2019-01-28T01:59:34.096Z,8.27
2019-01-28T02:02:04.776Z,8.60
2019-01-28T02:04:35.319Z,8.07
2019-01-28T02:07:05.838Z,8.80
2019-01-28T02:09:36.466Z,9.17
2019-01-28T02:12:07.055Z,9.60
2019-01-28T02:14:37.774Z,8.47
2019-01-28T02:17:12.693Z,9.63
2019-01-28T02:19:43.402Z,9.63
2019-01-28T02:22:13.695Z,9.43
2019-01-28T02:24:44.356Z,9.20
2019-01-28T02:27:16.637Z,8.73
2019-01-28T02:29:47.464Z,9.23
2019-01-28T02:32:17.989Z,9.53
2019-01-28T02:34:48.553Z,10.30
2019-01-28T02:37:19.162Z,9.70
2019-01-28T02:39:49.438Z,9.83
2019-01-28T02:42:20.025Z,9.93
2019-01-28T02:44:50.665Z,8.93
2019-01-28T02:47:21.276Z,11.27
2019-01-28T02:49:51.805Z,9.17
2019-01-28T02:52:22.441Z,9.50
2019-01-28T02:54:53.119Z,9.73
2019-01-28T02:57:23.712Z,10.30
2019-01-28T02:59:54.430Z,9.30
2019-01-28T03:02:25.002Z,11.13
2019-01-28T03:04:55.596Z,12.07
2019-01-28T03:07:25.940Z,8.90
2019-01-28T03:09:56.679Z,10.93
2019-01-28T03:12:27.416Z,10.13
2019-01-28T03:14:58.139Z,11.07
2019-01-28T03:17:29.221Z,13.70
2019-01-28T03:20:00.019Z,10.70
2019-01-28T03:22:30.516Z,9.30
2019-01-28T03:25:01.070Z,8.13
2019-01-28T03:27:31.677Z,10.57
2019-01-28T03:30:02.211Z,10.37
2019-01-28T03:32:32.466Z,10.20
2019-01-28T03:35:03.064Z,8.50
2019-01-28T03:37:33.702Z,9.57
2019-01-28T03:40:10.085Z,7.47
2019-01-28T03:42:40.696Z,8.90
2019-01-28T03:45:14.231Z,7.90
2019-01-28T03:47:44.821Z,9.43
2019-01-28T03:50:19.580Z,12.27
2019-01-28T03:52:50.279Z,8.97
2019-01-28T03:55:20.596Z,17.00
2019-01-28T03:57:51.165Z,9.77
2019-01-28T04:00:24.045Z,11.47
2019-01-28T04:02:54.305Z,12.67
2019-01-28T04:05:24.536Z,7.33
2019-01-28T04:07:55.122Z,7.17
2019-01-28T04:10:25.755Z,5.57
2019-01-28T04:12:56.381Z,6.40
2019-01-28T04:15:27.098Z,5.00
2019-01-28T04:17:57.643Z,6.67
2019-01-28T04:20:28.205Z,6.10
2019-01-28T04:22:58.804Z,5.97
2019-01-28T04:25:29.338Z,5.20
2019-01-28T04:27:59.967Z,3.97
2019-01-28T04:30:30.237Z,5.87
2019-01-28T04:33:00.999Z,4.93
2019-01-28T04:35:31.556Z,4.33
2019-01-28T04:38:02.086Z,3.07
2019-01-28T04:40:32.440Z,6.27
2019-01-28T04:43:02.925Z,3.27
2019-01-28T04:45:33.556Z,5.83
2019-01-28T04:48:04.200Z,5.47
2019-01-28T04:50:34.492Z,5.33
2019-01-28T04:53:04.769Z,8.67
2019-01-28T04:55:35.070Z,6.53
2019-01-28T04:58:05.618Z,5.83
2019-01-28T05:00:36.221Z,6.60
2019-01-28T05:03:06.852Z,6.47
2019-01-28T05:05:37.500Z,5.63
2019-01-28T05:08:08.124Z,6.07
2019-01-28T05:10:38.752Z,9.00
2019-01-28T05:13:09.424Z,5.80
2019-01-28T05:15:40.022Z,7.23
2019-01-28T05:18:10.633Z,9.17
2019-01-28T05:20:40.847Z,9.83
2019-01-28T05:23:11.406Z,9.07
2019-01-28T05:25:41.923Z,7.73
2019-01-28T05:28:12.191Z,5.63
2019-01-28T05:30:42.411Z,7.97
2019-01-28T05:33:13.009Z,6.80
2019-01-28T05:35:43.357Z,8.83
2019-01-28T05:38:13.843Z,8.73
2019-01-28T05:40:44.482Z,8.23
2019-01-28T05:43:15.051Z,10.27
2019-01-28T05:45:45.767Z,8.53
2019-01-28T05:48:16.420Z,9.37
2019-01-28T05:50:46.726Z,8.87
2019-01-28T05:53:16.981Z,8.53
2019-01-28T05:55:47.592Z,6.93
2019-01-28T05:58:18.182Z,9.60
2019-01-28T06:00:48.751Z,9.93
2019-01-28T06:03:19.371Z,8.07
2019-01-28T06:05:50.114Z,8.60
2019-01-28T06:08:20.641Z,7.37
2019-01-28T06:10:51.276Z,8.10
2019-01-28T06:13:21.791Z,10.23
2019-01-28T06:15:52.438Z,6.83
2019-01-28T06:18:23.058Z,10.57
2019-01-28T06:20:53.788Z,8.77
2019-01-28T06:23:24.328Z,10.23
2019-01-28T06:25:54.955Z,9.13
2019-01-28T06:28:25.206Z,8.33
2019-01-28T06:30:55.815Z,9.03
2019-01-28T06:33:26.381Z,8.47
2019-01-28T06:35:56.692Z,9.53
2019-01-28T06:38:27.001Z,8.13
2019-01-28T06:40:57.613Z,9.37
2019-01-28T06:43:28.253Z,10.80
2019-01-28T06:45:58.855Z,10.40
2019-01-28T06:48:29.524Z,11.10
2019-01-28T06:51:00.154Z,8.47
2019-01-28T06:53:30.681Z,9.03
2019-01-28T06:56:01.314Z,8.27
2019-01-28T06:58:31.838Z,8.10
2019-01-28T07:01:02.129Z,9.37
2019-01-28T07:03:32.703Z,14.27
2019-01-28T07:06:03.422Z,11.90
2019-01-28T07:08:34.051Z,9.90
2019-01-28T07:11:04.277Z,10.50
2019-01-28T07:13:34.622Z,10.00
2019-01-28T07:16:05.334Z,10.60
2019-01-28T07:18:36.367Z,10.17
2019-01-28T07:21:08.054Z,10.60
2019-01-28T07:23:38.660Z,9.30
2019-01-28T07:26:09.337Z,11.47
2019-01-28T07:28:39.938Z,24.83
2019-01-28T07:31:10.452Z,30.53
2019-01-28T07:33:41.089Z,36.10
2019-01-28T07:36:14.176Z,37.70
2019-01-28T07:38:44.808Z,39.23
2019-01-28T07:41:15.451Z,33.60
2019-01-28T07:43:46.085Z,29.53
2019-01-28T07:46:22.761Z,32.37
2019-01-28T07:48:53.478Z,28.03
2019-01-28T07:51:24.226Z,22.77
2019-01-28T07:53:54.855Z,24.67
2019-01-28T07:56:25.455Z,22.00
2019-01-28T07:58:55.993Z,18.87
2019-01-28T08:01:26.260Z,18.40
2019-01-28T08:03:56.755Z,18.23
2019-01-28T08:06:27.513Z,17.50
2019-01-28T08:08:57.799Z,16.67
2019-01-28T08:11:28.027Z,15.10
2019-01-28T08:13:58.575Z,19.03
2019-01-28T08:16:32.283Z,17.70
2019-01-28T08:19:02.919Z,17.50
2019-01-28T08:21:33.604Z,23.37
2019-01-28T08:24:04.166Z,21.90
2019-01-28T08:26:34.697Z,24.53
2019-01-28T08:29:05.848Z,21.00
2019-01-28T08:31:36.442Z,21.57
2019-01-28T08:34:07.018Z,19.60
2019-01-28T08:36:37.724Z,20.50
2019-01-28T08:39:09.294Z,19.33
2019-01-28T08:41:39.818Z,15.87
2019-01-28T08:44:12.012Z,15.47
2019-01-28T08:46:42.624Z,16.50
2019-01-28T08:49:13.258Z,17.67
2019-01-28T08:51:43.988Z,15.90
2019-01-28T08:54:14.504Z,16.57
2019-01-28T08:56:45.246Z,15.97
2019-01-28T08:59:18.825Z,17.70
2019-01-28T09:01:49.482Z,16.33
2019-01-28T09:04:20.092Z,14.77
2019-01-28T09:06:50.456Z,17.27
2019-01-28T09:09:20.766Z,15.67
2019-01-28T09:11:51.091Z,19.10
2019-01-28T09:14:21.640Z,17.23
2019-01-28T09:16:52.248Z,12.73
2019-01-28T09:19:22.435Z,13.93
2019-01-28T09:21:52.985Z,13.30
2019-01-28T09:24:23.522Z,12.70
2019-01-28T09:26:54.059Z,13.43
2019-01-28T09:29:24.681Z,15.40
2019-01-28T09:31:55.429Z,11.47
2019-01-28T09:34:26.042Z,15.03
2019-01-28T09:36:56.571Z,12.50
2019-01-28T09:39:28.661Z,14.03
2019-01-28T09:41:59.408Z,12.30
2019-01-28T09:44:29.614Z,9.93
2019-01-28T09:47:00.329Z,12.27
2019-01-28T09:49:33.953Z,11.33
2019-01-28T09:52:04.639Z,11.27
2019-01-28T09:54:35.220Z,10.70
2019-01-28T09:57:06.313Z,11.43
2019-01-28T09:59:37.094Z,11.27
2019-01-28T10:02:07.621Z,9.37
2019-01-28T10:04:38.263Z,11.13
2019-01-28T10:07:08.895Z,11.97
2019-01-28T10:09:39.160Z,10.07
2019-01-28T10:12:09.785Z,10.40
2019-01-28T10:14:40.352Z,10.10
2019-01-28T10:17:10.903Z,9.47
2019-01-28T10:19:41.508Z,9.23
2019-01-28T10:22:12.062Z,10.43
2019-01-28T10:24:43.806Z,8.40
2019-01-28T10:27:14.363Z,9.23
2019-01-28T10:29:44.955Z,8.87
2019-01-28T10:32:15.536Z,11.50
2019-01-28T10:34:45.763Z,9.77
2019-01-28T10:37:16.354Z,9.27
2019-01-28T10:39:46.945Z,9.60
2019-01-28T10:42:17.610Z,9.67
2019-01-28T10:44:48.286Z,8.47
2019-01-28T10:47:19.830Z,8.90
2019-01-28T10:49:50.331Z,8.83
2019-01-28T10:52:21.065Z,8.50
2019-01-28T10:54:52.691Z,7.23
2019-01-28T10:57:23.369Z,8.17
2019-01-28T10:59:53.986Z,8.33
2019-01-28T11:02:24.328Z,8.60
2019-01-28T11:04:54.914Z,7.40
2019-01-28T11:07:25.590Z,7.17
2019-01-28T11:09:56.218Z,8.63
2019-01-28T11:12:26.814Z,6.27
2019-01-28T11:14:58.573Z,7.10
2019-01-28T11:17:29.260Z,8.10
2019-01-28T11:19:59.995Z,6.77
2019-01-28T11:22:30.614Z,6.60
2019-01-28T11:25:01.798Z,6.57
2019-01-28T11:27:33.262Z,6.33
2019-01-28T11:30:04.647Z,5.90
2019-01-28T11:32:35.325Z,6.77
2019-01-28T11:35:07.364Z,7.27
2019-01-28T11:37:38.090Z,6.90
2019-01-28T11:40:14.178Z,6.93
2019-01-28T11:42:45.036Z,5.57
2019-01-28T11:45:21.575Z,5.57
2019-01-28T11:47:52.317Z,7.00
2019-01-28T11:50:23.215Z,6.67
2019-01-28T11:52:54.344Z,8.93
2019-01-28T11:55:25.203Z,6.80
2019-01-28T11:57:55.696Z,6.03
2019-01-28T12:00:48.884Z,8.27
2019-01-28T12:03:19.605Z,4.23
2019-01-28T12:05:50.234Z,5.17
2019-01-28T12:08:20.758Z,5.07
2019-01-28T12:10:51.013Z,5.47
2019-01-28T12:13:21.925Z,5.17
2019-01-28T12:15:52.469Z,4.63
2019-01-28T12:18:23.006Z,6.30
2019-01-28T12:20:53.991Z,4.83
2019-01-28T12:23:24.612Z,5.20
2019-01-28T12:25:55.181Z,4.30
2019-01-28T12:28:25.713Z,4.10
2019-01-28T12:30:55.904Z,4.33
2019-01-28T12:33:26.501Z,5.17
2019-01-28T12:35:56.762Z,4.50
2019-01-28T12:38:27.563Z,4.80
2019-01-28T12:40:58.161Z,5.00
2019-01-28T12:43:28.707Z,4.47
2019-01-28T12:45:59.585Z,3.60
2019-01-28T12:48:30.159Z,4.50
2019-01-28T12:51:00.435Z,3.20
2019-01-28T12:53:31.129Z,5.73
2019-01-28T12:56:01.355Z,4.13
2019-01-28T12:58:31.966Z,4.13
2019-01-28T13:01:02.618Z,4.97
2019-01-28T13:03:33.337Z,5.13
2019-01-28T13:06:03.850Z,4.30
2019-01-28T13:08:34.497Z,3.87
2019-01-28T13:11:07.983Z,4.47
2019-01-28T13:13:41.107Z,9.47
2019-01-28T13:16:10.823Z,3.30
2019-01-28T13:18:41.441Z,2.60
2019-01-28T13:21:12.071Z,3.63
2019-01-28T13:23:43.244Z,3.07
2019-01-28T13:26:13.742Z,4.90
2019-01-28T13:28:44.422Z,3.67
2019-01-28T13:31:15.027Z,3.80
2019-01-28T13:33:45.664Z,5.73
2019-01-28T13:36:16.783Z,3.33
2019-01-28T13:38:47.064Z,3.93
2019-01-28T13:41:17.650Z,4.63
2019-01-28T13:43:48.299Z,3.53
2019-01-28T13:46:19.085Z,5.13
2019-01-28T13:48:49.845Z,5.03
2019-01-28T13:51:20.479Z,6.00
2019-01-28T13:53:51.092Z,3.20
2019-01-28T13:56:21.634Z,5.00
2019-01-28T13:59:00.060Z,3.50
2019-01-28T14:01:33.812Z,5.20
2019-01-28T14:04:03.669Z,4.93
2019-01-28T14:06:34.195Z,3.73
2019-01-28T14:09:08.086Z,3.70
2019-01-28T14:11:41.112Z,4.00
2019-01-28T14:14:13.067Z,3.70
2019-01-28T14:16:43.669Z,4.17
2019-01-28T14:19:14.305Z,4.83
2019-01-28T14:21:44.934Z,4.13
2019-01-28T14:24:16.999Z,4.10
2019-01-28T14:26:47.543Z,3.73
2019-01-28T14:29:19.429Z,3.23
2019-01-28T14:31:50.034Z,4.93
2019-01-28T14:34:22.416Z,3.97
2019-01-28T14:36:53.060Z,4.47
2019-01-28T14:39:24.668Z,6.60
2019-01-28T14:41:55.328Z,5.07
2019-01-28T14:44:25.941Z,3.37
2019-01-28T14:46:59.209Z,3.93
2019-01-28T14:49:32.336Z,3.67
2019-01-28T14:52:02.039Z,6.97
2019-01-28T14:54:32.690Z,5.53
2019-01-28T14:57:03.310Z,3.30
2019-01-28T14:59:33.967Z,4.53
2019-01-28T15:02:04.479Z,4.93
2019-01-28T15:04:35.199Z,4.10
2019-01-28T15:07:05.885Z,3.93
2019-01-28T15:09:36.581Z,5.47
2019-01-28T15:12:07.202Z,4.43
2019-01-28T15:14:37.573Z,4.53
2019-01-28T15:17:08.425Z,4.40
2019-01-28T15:19:39.138Z,2.90
2019-01-28T15:22:09.743Z,3.97
2019-01-28T15:24:41.803Z,4.83
2019-01-28T15:27:12.522Z,4.77
2019-01-28T15:29:43.176Z,3.30
2019-01-28T15:32:15.758Z,16.63
2019-01-28T15:34:48.637Z,3.93
2019-01-28T15:37:20.721Z,3.20
2019-01-28T15:39:51.315Z,3.23
2019-01-28T15:42:21.967Z,2.93
2019-01-28T15:45:01.718Z,2.47
2019-01-28T15:47:31.956Z,2.60
2019-01-28T15:50:10.376Z,2.33
2019-01-28T15:52:34.819Z,1.90
2019-01-28T15:55:08.639Z,2.07
2019-01-28T15:57:39.292Z,3.23
2019-01-28T16:00:13.512Z,3.37
2019-01-28T16:02:44.336Z,2.17
2019-01-28T16:05:16.712Z,2.37
2019-01-28T16:07:47.849Z,1.97
2019-01-28T16:10:21.377Z,4.67
2019-01-28T16:12:51.884Z,3.17
2019-01-28T16:15:28.736Z,3.80
2019-01-28T16:17:59.525Z,3.00
2019-01-28T16:20:30.102Z,3.97
2019-01-28T16:23:02.288Z,4.17
2019-01-28T16:25:33.820Z,2.60
2019-01-28T16:28:06.370Z,2.73
2019-01-28T16:30:38.559Z,2.60
2019-01-28T16:33:08.917Z,2.50
2019-01-28T16:35:39.534Z,1.93
2019-01-28T16:38:10.182Z,5.27
2019-01-28T16:40:40.815Z,8.13
2019-01-28T16:43:11.420Z,3.83
2019-01-28T16:45:42.041Z,4.03
2019-01-28T16:48:14.607Z,28.20
2019-01-28T16:50:45.203Z,4.57
2019-01-28T16:53:15.815Z,3.33
2019-01-28T16:55:46.589Z,3.60
2019-01-28T16:58:17.270Z,3.77
2019-01-28T17:00:47.905Z,4.33
2019-01-28T17:03:18.411Z,3.83
2019-01-28T17:05:48.955Z,4.00
2019-01-28T17:08:19.466Z,4.80
2019-01-28T17:10:50.020Z,4.43
2019-01-28T17:13:21.218Z,5.80
2019-01-28T17:15:51.489Z,4.33
2019-01-28T17:18:21.991Z,5.87
2019-01-28T17:20:52.549Z,5.97
2019-01-28T17:23:23.291Z,5.40
2019-01-28T17:25:54.022Z,5.30
2019-01-28T17:28:24.644Z,5.73
2019-01-28T17:30:55.282Z,5.40
2019-01-28T17:33:25.673Z,6.30
2019-01-28T17:35:56.344Z,5.43
2019-01-28T17:38:27.000Z,5.23
2019-01-28T17:40:59.266Z,5.40
2019-01-28T17:43:29.776Z,5.20
2019-01-28T17:46:00.529Z,8.53
2019-01-28T17:48:31.151Z,7.73
2019-01-28T17:51:03.670Z,18.70
2019-01-28T17:53:33.939Z,7.47
2019-01-28T17:56:05.275Z,7.13
2019-01-28T17:58:35.955Z,6.57
2019-01-28T18:01:06.586Z,6.20
2019-01-28T18:03:37.264Z,5.27
2019-01-28T18:06:07.954Z,6.50
2019-01-28T18:08:38.427Z,5.50
2019-01-28T18:11:08.970Z,6.10
2019-01-28T18:13:42.786Z,8.03
2019-01-28T18:16:14.078Z,5.93
2019-01-28T18:18:44.667Z,5.70
2019-01-28T18:21:15.406Z,5.87
2019-01-28T18:23:46.864Z,6.20
2019-01-28T18:26:17.695Z,5.83
2019-01-28T18:28:48.410Z,7.10
2019-01-28T18:31:18.744Z,7.37
2019-01-28T18:33:49.397Z,6.83
2019-01-28T18:36:20.107Z,6.40
2019-01-28T18:38:50.307Z,6.87
2019-01-28T18:41:21.486Z,9.67
2019-01-28T18:43:52.202Z,8.43
2019-01-28T18:46:26.434Z,8.13
2019-01-28T18:48:57.203Z,9.77
2019-01-28T18:51:27.987Z,7.23
2019-01-28T18:53:58.618Z,6.30
2019-01-28T18:56:29.289Z,7.50
2019-01-28T18:59:01.175Z,7.50
2019-01-28T19:01:32.259Z,8.40
2019-01-28T19:04:02.591Z,7.40
2019-01-28T19:06:44.277Z,6.20
2019-01-28T19:09:16.456Z,5.60
2019-01-28T19:11:48.571Z,6.40
2019-01-28T19:14:23.438Z,6.60
2019-01-28T19:16:55.718Z,6.70
2019-01-28T19:19:36.403Z,7.80
2019-01-28T19:22:09.977Z,6.77
2019-01-28T19:24:40.632Z,10.70
2019-01-28T19:27:13.892Z,17.47
2019-01-28T19:29:44.520Z,8.20
2019-01-28T19:32:15.263Z,7.20
2019-01-28T19:34:45.971Z,11.17
2019-01-28T19:37:16.423Z,7.30
2019-01-28T19:39:47.103Z,6.80
2019-01-28T19:42:17.859Z,7.37
2019-01-28T19:44:50.213Z,6.33
2019-01-28T19:47:21.112Z,7.17
2019-01-28T19:49:51.845Z,7.70
2019-01-28T19:52:23.099Z,7.77
2019-01-28T19:54:53.842Z,8.40
2019-01-28T19:57:24.480Z,8.67
2019-01-28T19:59:57.584Z,7.97
2019-01-28T20:02:29.766Z,8.07
2019-01-28T20:05:00.466Z,9.10
2019-01-28T20:07:31.124Z,8.60
2019-01-28T20:10:01.815Z,9.40
2019-01-28T20:12:34.228Z,10.90
2019-01-28T20:15:07.579Z,12.40
2019-01-28T20:17:38.230Z,11.63
2019-01-28T20:20:11.763Z,11.83
2019-01-28T20:22:45.384Z,10.83
2019-01-28T20:25:16.831Z,10.13
2019-01-28T20:27:47.647Z,11.97
2019-01-28T20:30:21.607Z,11.27
2019-01-28T20:32:52.525Z,13.00
2019-01-28T20:35:23.215Z,12.70
2019-01-28T20:37:55.006Z,12.73
2019-01-28T20:40:25.746Z,13.97
2019-01-28T20:42:56.557Z,12.17
2019-01-28T20:45:27.400Z,11.63
2019-01-28T20:47:58.127Z,12.50
2019-01-28T20:50:30.539Z,11.53
2019-01-28T20:53:01.356Z,12.43
2019-01-28T20:55:31.713Z,12.07
2019-01-28T20:58:02.520Z,15.37
2019-01-28T21:00:34.681Z,13.87
2019-01-28T21:03:05.559Z,13.50
2019-01-28T21:05:36.286Z,13.37
2019-01-28T21:08:07.038Z,15.30
2019-01-28T21:10:37.834Z,15.53
2019-01-28T21:13:08.665Z,16.70
2019-01-28T21:15:39.363Z,14.23
2019-01-28T21:18:09.622Z,14.17
2019-01-28T21:20:40.355Z,15.50
2019-01-28T21:23:11.048Z,14.80
2019-01-28T21:25:46.342Z,14.77
2019-01-28T21:28:16.684Z,17.00
2019-01-28T21:30:47.469Z,17.07
2019-01-28T21:33:24.447Z,17.00
2019-01-28T21:36:02.940Z,19.27
2019-01-28T21:38:43.922Z,17.23
2019-01-28T21:41:14.650Z,18.10
2019-01-28T21:43:45.407Z,16.57
2019-01-28T21:46:15.993Z,17.43
2019-01-28T21:48:46.329Z,17.93
2019-01-28T21:51:17.023Z,16.60
2019-01-28T21:53:47.705Z,17.63
2019-01-28T21:56:18.522Z,17.13
2019-01-28T21:58:49.127Z,17.10
2019-01-28T22:01:19.798Z,18.30
2019-01-28T22:03:52.107Z,18.00
2019-01-28T22:06:22.807Z,18.13
2019-01-28T22:08:53.435Z,18.87
2019-01-28T22:11:23.757Z,17.23
2019-01-28T22:13:54.143Z,17.07
2019-01-28T22:16:25.440Z,18.10
2019-01-28T22:18:56.160Z,19.13
2019-01-28T22:21:26.812Z,17.33
2019-01-28T22:23:57.439Z,18.43
2019-01-28T22:26:27.814Z,18.67
2019-01-28T22:28:58.507Z,19.53
2019-01-28T22:31:29.138Z,15.67
2019-01-28T22:33:59.982Z,19.83
2019-01-28T22:36:30.620Z,16.80
2019-01-28T22:39:01.842Z,19.10
2019-01-28T22:41:33.383Z,16.57
2019-01-28T22:44:03.916Z,16.27
2019-01-28T22:46:36.068Z,17.83
2019-01-28T22:49:06.601Z,17.93
2019-01-28T22:51:37.156Z,17.27
2019-01-28T22:54:07.763Z,18.40
2019-01-28T22:56:38.418Z,17.33
2019-01-28T22:59:09.139Z,17.53
2019-01-28T23:01:41.453Z,19.27
2019-01-28T23:04:12.292Z,17.13
2019-01-28T23:06:42.858Z,18.63
2019-01-28T23:09:13.500Z,16.73
2019-01-28T23:11:45.392Z,17.27
2019-01-28T23:14:16.100Z,17.40
2019-01-28T23:16:46.729Z,18.47
2019-01-28T23:19:17.492Z,15.73
2019-01-28T23:21:48.093Z,16.43
2019-01-28T23:24:18.743Z,15.13
2019-01-28T23:26:49.029Z,17.43
2019-01-28T23:29:20.548Z,15.53
2019-01-28T23:31:51.281Z,16.40
2019-01-28T23:34:21.983Z,16.40
2019-01-28T23:36:52.619Z,17.93
2019-01-28T23:39:22.857Z,17.70
2019-01-28T23:41:58.475Z,17.00
2019-01-28T23:44:29.325Z,16.17
2019-01-28T23:47:00.039Z,17.53
2019-01-28T23:49:31.006Z,17.63
2019-01-28T23:52:01.730Z,15.97
2019-01-28T23:54:32.379Z,15.43
2019-01-28T23:57:02.631Z,17.40
2019-01-28T23:59:33.436Z,17.53
